createdAt,value
2019-03-17T00:00:46.187Z,94289.78
2019-03-17T00:03:54.869Z,94293.25
2019-03-17T00:07:02.034Z,94280.02
2019-03-17T00:10:09.868Z,94284.80
2019-03-17T00:13:17.922Z,94283.75
2019-03-17T00:16:25.309Z,94276.37
2019-03-17T00:19:32.549Z,94280.45
2019-03-17T00:22:40.054Z,94275.36
2019-03-17T00:25:47.325Z,94275.97
2019-03-17T00:28:54.600Z,94271.39
2019-03-17T00:32:03.795Z,94267.93
2019-03-17T00:35:11.235Z,94260.99
2019-03-17T00:38:18.503Z,94262.55
2019-03-17T00:41:26.453Z,94259.03
2019-03-17T00:44:34.314Z,94260.05
2019-03-17T00:47:41.586Z,94248.55
2019-03-17T00:50:49.159Z,94252.19
2019-03-17T00:53:56.755Z,94248.44
2019-03-17T00:57:04.149Z,94247.51
2019-03-17T01:00:12.124Z,94242.94
2019-03-17T01:03:19.488Z,94241.75
2019-03-17T01:06:27.583Z,94239.53
2019-03-17T01:09:35.608Z,94230.27
2019-03-17T01:12:44.875Z,94232.70
2019-03-17T01:15:52.212Z,94219.50
2019-03-17T01:18:59.476Z,94216.10
2019-03-17T01:22:06.739Z,94221.27
2019-03-17T01:25:14.692Z,94214.79
2019-03-17T01:28:21.834Z,94219.12
2019-03-17T01:31:29.117Z,94218.55
2019-03-17T01:34:36.690Z,94209.75
2019-03-17T01:37:44.500Z,94207.87
2019-03-17T01:40:52.052Z,94205.14
2019-03-17T01:44:00.473Z,94202.34
2019-03-17T01:47:07.732Z,94199.22
2019-03-17T01:50:15.165Z,94186.88
2019-03-17T01:53:23.491Z,94188.70
2019-03-17T01:56:31.270Z,94183.93
2019-03-17T01:59:38.985Z,94178.06
2019-03-17T02:02:46.152Z,94179.52
2019-03-17T02:05:55.253Z,94182.07
2019-03-17T02:09:04.837Z,94175.56
2019-03-17T02:12:11.993Z,94175.34
2019-03-17T02:15:19.616Z,94170.62
2019-03-17T02:18:27.032Z,94172.47
2019-03-17T02:21:34.557Z,94166.73
2019-03-17T02:24:42.110Z,94170.75
2019-03-17T02:27:49.511Z,94168.36
2019-03-17T02:30:56.682Z,94154.70
2019-03-17T02:34:03.959Z,94147.66
2019-03-17T02:37:11.644Z,94155.47
2019-03-17T02:40:19.612Z,94151.99
2019-03-17T02:43:28.222Z,94154.14
2019-03-17T02:46:35.617Z,94154.47
2019-03-17T02:49:44.137Z,94144.88
2019-03-17T02:52:51.778Z,94145.20
2019-03-17T02:55:59.274Z,94141.31
2019-03-17T02:59:07.559Z,94143.77
2019-03-17T03:02:15.143Z,94139.97
2019-03-17T03:05:22.668Z,94143.73
2019-03-17T03:08:30.017Z,94142.09
2019-03-17T03:11:37.272Z,94149.82
2019-03-17T03:14:44.461Z,94152.02
2019-03-17T03:17:51.882Z,94157.76
2019-03-17T03:20:59.426Z,94161.16
2019-03-17T03:24:06.579Z,94152.42
2019-03-17T03:27:13.982Z,94153.24
2019-03-17T03:30:21.507Z,94153.98
2019-03-17T03:33:29.850Z,94144.98
2019-03-17T03:36:37.214Z,94141.14
2019-03-17T03:39:45.519Z,94145.95
2019-03-17T03:42:53.448Z,94141.95
2019-03-17T03:46:00.712Z,94144.81
2019-03-17T03:49:08.514Z,94132.48
2019-03-17T03:52:16.738Z,94132.56
2019-03-17T03:55:24.162Z,94131.88
2019-03-17T03:58:32.131Z,94130.25
2019-03-17T04:01:39.640Z,94126.94
2019-03-17T04:04:47.419Z,94118.35
2019-03-17T04:07:55.054Z,94117.45
2019-03-17T04:11:02.893Z,94116.11
2019-03-17T04:14:10.343Z,94112.94
2019-03-17T04:17:17.813Z,94111.80
2019-03-17T04:20:25.556Z,94114.48
2019-03-17T04:23:33.485Z,94116.50
2019-03-17T04:26:41.365Z,94110.16
2019-03-17T04:29:49.169Z,94111.41
2019-03-17T04:32:56.327Z,94103.77
2019-03-17T04:36:03.686Z,94117.13
2019-03-17T04:39:11.828Z,94114.43
2019-03-17T04:42:19.306Z,94110.79
2019-03-17T04:45:26.452Z,94100.20
2019-03-17T04:48:34.205Z,94106.38
2019-03-17T04:51:41.375Z,94104.75
2019-03-17T04:54:48.733Z,94104.22
2019-03-17T04:57:56.081Z,94105.69
2019-03-17T05:01:03.621Z,94110.64
2019-03-17T05:04:10.881Z,94103.54
2019-03-17T05:07:18.073Z,94107.78
2019-03-17T05:10:25.782Z,94104.85
2019-03-17T05:13:32.934Z,94107.08
2019-03-17T05:16:40.299Z,94101.05
2019-03-17T05:19:48.215Z,94096.09
2019-03-17T05:22:55.669Z,94093.87
2019-03-17T05:26:03.395Z,94097.64
2019-03-17T05:29:10.592Z,94098.49
2019-03-17T05:32:18.440Z,94091.55
2019-03-17T05:35:25.635Z,94094.55
2019-03-17T05:38:33.551Z,94092.86
2019-03-17T05:41:43.379Z,94081.98
2019-03-17T05:44:51.335Z,94079.63
2019-03-17T05:47:59.908Z,94083.52
2019-03-17T05:51:08.235Z,94083.94
2019-03-17T05:54:16.178Z,94066.61
2019-03-17T05:57:23.676Z,94072.06
2019-03-17T06:00:31.020Z,94072.92
2019-03-17T06:03:38.519Z,94071.60
2019-03-17T06:06:46.678Z,94072.67
2019-03-17T06:09:54.661Z,94070.11
2019-03-17T06:16:13.943Z,94074.14
2019-03-17T06:19:21.363Z,94074.83
2019-03-17T06:22:29.938Z,94070.78
2019-03-17T06:25:37.806Z,94064.32
2019-03-17T06:28:45.860Z,94063.36
2019-03-17T06:31:53.416Z,94052.69
2019-03-17T06:35:00.885Z,94053.98
2019-03-17T06:38:08.189Z,94053.48
2019-03-17T06:41:16.110Z,94050.48
2019-03-17T06:44:24.229Z,94056.85
2019-03-17T06:47:32.761Z,94052.42
2019-03-17T06:50:40.634Z,94049.96
2019-03-17T06:53:56.179Z,94045.34
2019-03-17T06:56:57.614Z,94046.42
2019-03-17T07:00:05.777Z,94040.83
2019-03-17T07:03:13.564Z,94035.58
2019-03-17T07:06:20.753Z,94033.48
2019-03-17T07:09:28.391Z,94027.44
2019-03-17T07:12:35.843Z,94033.84
2019-03-17T07:15:43.493Z,94029.62
2019-03-17T07:18:52.331Z,94029.79
2019-03-17T07:22:00.246Z,94036.11
2019-03-17T07:25:08.038Z,94031.50
2019-03-17T07:28:15.745Z,94026.37
2019-03-17T07:31:23.272Z,94019.63
2019-03-17T07:34:31.140Z,94023.92
2019-03-17T07:37:38.677Z,94024.34
2019-03-17T07:40:45.862Z,94028.20
2019-03-17T07:43:53.570Z,94024.56
2019-03-17T07:47:01.198Z,94020.58
2019-03-17T07:50:09.528Z,94008.73
2019-03-17T07:53:16.713Z,94013.72
2019-03-17T07:56:24.908Z,94012.03
2019-03-17T07:59:32.306Z,94008.97
2019-03-17T08:02:39.976Z,94010.89
2019-03-17T08:05:47.371Z,94017.73
2019-03-17T08:08:54.908Z,94014.89
2019-03-17T08:12:02.731Z,94009.31
2019-03-17T08:15:10.378Z,94011.95
2019-03-17T08:18:18.297Z,94011.09
2019-03-17T08:21:26.255Z,94012.18
2019-03-17T08:24:33.614Z,94017.61
2019-03-17T08:27:41.695Z,94008.63
2019-03-17T08:30:53.413Z,94017.66
2019-03-17T08:33:58.738Z,94010.36
2019-03-17T08:37:06.497Z,94011.86
2019-03-17T08:40:14.157Z,94014.54
2019-03-17T08:43:22.492Z,94015.91
2019-03-17T08:46:30.414Z,94017.34
2019-03-17T08:49:38.499Z,94010.73
2019-03-17T08:52:47.411Z,94016.39
2019-03-17T08:55:55.300Z,94022.14
2019-03-17T08:59:03.202Z,94011.56
2019-03-17T09:02:11.471Z,94018.37
2019-03-17T09:05:18.951Z,94012.78
2019-03-17T09:08:35.015Z,93999.00
2019-03-17T09:11:37.244Z,93993.78
2019-03-17T09:14:45.120Z,93994.74
2019-03-17T09:17:53.672Z,93989.41
2019-03-17T09:21:00.848Z,94005.30
2019-03-17T09:24:17.055Z,93995.03
2019-03-17T09:27:19.389Z,93990.86
2019-03-17T09:30:27.396Z,93996.69
2019-03-17T09:33:35.604Z,93998.03
2019-03-17T09:36:43.729Z,93995.53
2019-03-17T09:39:51.075Z,93985.85
2019-03-17T09:42:58.685Z,93990.56
2019-03-17T09:46:06.624Z,93993.53
2019-03-17T09:49:14.424Z,93981.05
2019-03-17T09:52:22.747Z,93988.72
2019-03-17T09:55:30.938Z,93981.32
2019-03-17T09:58:38.346Z,93971.81
2019-03-17T10:01:46.394Z,93968.56
2019-03-17T10:04:54.160Z,93959.42
2019-03-17T10:08:01.659Z,93957.20
2019-03-17T10:11:10.792Z,93955.67
2019-03-17T10:14:19.082Z,93948.38
2019-03-17T10:17:27.019Z,93944.86
2019-03-17T10:20:34.658Z,93951.16
2019-03-17T10:23:42.489Z,93949.03
2019-03-17T10:26:50.225Z,93947.55
2019-03-17T10:29:57.482Z,93947.03
2019-03-17T10:33:04.907Z,93943.13
2019-03-17T10:36:12.472Z,93930.00
2019-03-17T10:39:20.604Z,93917.95
2019-03-17T10:42:27.970Z,93914.08
2019-03-17T10:45:35.880Z,93911.78
2019-03-17T10:48:43.345Z,93902.67
2019-03-17T10:51:50.610Z,93891.92
2019-03-17T10:54:59.333Z,93890.32
2019-03-17T10:58:06.982Z,93889.49
2019-03-17T11:01:16.005Z,93881.48
2019-03-17T11:04:23.882Z,93880.94
2019-03-17T11:07:31.266Z,93884.25
2019-03-17T11:10:39.857Z,93880.28
2019-03-17T11:13:47.751Z,93877.16
2019-03-17T11:16:55.444Z,93882.67
2019-03-17T11:20:04.250Z,93870.92
2019-03-17T11:23:12.910Z,93875.78
2019-03-17T11:26:21.342Z,93876.89
2019-03-17T11:29:28.907Z,93879.55
2019-03-17T11:32:36.822Z,93883.27
2019-03-17T11:35:44.269Z,93866.77
2019-03-17T11:38:52.588Z,93874.97
2019-03-17T11:42:00.928Z,93883.14
2019-03-17T11:45:11.006Z,93875.63
2019-03-17T11:48:18.508Z,93863.25
2019-03-17T11:51:26.559Z,93860.91
2019-03-17T11:54:34.319Z,93862.95
2019-03-17T11:57:42.694Z,93847.93
2019-03-17T12:00:50.189Z,93849.47
2019-03-17T12:03:57.728Z,93826.06
2019-03-17T12:07:05.407Z,93827.68
2019-03-17T12:10:13.847Z,93828.71
2019-03-17T12:13:21.763Z,93831.89
2019-03-17T12:16:29.564Z,93829.64
2019-03-17T12:19:37.537Z,93827.70
2019-03-17T12:22:45.009Z,93823.73
2019-03-17T12:25:52.908Z,93823.00
2019-03-17T12:29:00.556Z,93823.83
2019-03-17T12:32:08.357Z,93817.72
2019-03-17T12:35:15.689Z,93806.29
2019-03-17T12:38:23.276Z,93813.08
2019-03-17T12:41:31.531Z,93812.97
2019-03-17T12:44:39.005Z,93815.09
2019-03-17T12:47:47.400Z,93806.55
2019-03-17T12:50:55.182Z,93805.34
2019-03-17T12:54:03.001Z,93800.91
2019-03-17T12:57:10.803Z,93793.73
2019-03-17T13:00:18.589Z,93788.06
2019-03-17T13:03:26.777Z,93785.98
2019-03-17T13:06:34.440Z,93782.59
2019-03-17T13:09:42.419Z,93784.20
2019-03-17T13:12:50.964Z,93787.88
2019-03-17T13:19:07.230Z,93785.48
2019-03-17T13:22:14.872Z,93789.38
2019-03-17T13:25:22.884Z,93777.10
2019-03-17T13:28:30.084Z,93781.25
2019-03-17T13:31:40.005Z,93784.47
2019-03-17T13:34:47.465Z,93788.05
2019-03-17T13:37:55.878Z,93775.13
2019-03-17T13:41:03.957Z,93778.75
2019-03-17T13:44:12.127Z,93774.43
2019-03-17T13:47:19.499Z,93779.48
2019-03-17T13:50:27.374Z,93778.42
2019-03-17T13:53:35.745Z,93770.03
2019-03-17T13:56:43.860Z,93772.45
2019-03-17T13:59:51.552Z,93769.63
2019-03-17T14:02:59.139Z,93764.22
2019-03-17T14:06:06.653Z,93768.98
2019-03-17T14:09:14.813Z,93765.66
2019-03-17T14:12:22.235Z,93775.20
2019-03-17T14:15:29.990Z,93772.45
2019-03-17T14:18:38.184Z,93769.73
2019-03-17T14:21:45.520Z,93773.08
2019-03-17T14:24:53.933Z,93770.94
2019-03-17T14:28:01.811Z,93770.71
2019-03-17T14:31:10.384Z,93768.65
2019-03-17T14:34:18.724Z,93769.63
2019-03-17T14:37:29.324Z,93765.66
2019-03-17T14:40:38.354Z,93778.59
2019-03-17T14:43:47.019Z,93772.20
2019-03-17T14:46:54.593Z,93772.13
2019-03-17T14:50:03.155Z,93769.34
2019-03-17T14:53:10.994Z,93780.00
2019-03-17T14:56:19.043Z,93781.66
2019-03-17T14:59:27.739Z,93776.64
2019-03-17T15:02:36.638Z,93785.23
2019-03-17T15:05:44.985Z,93779.94
2019-03-17T15:08:52.743Z,93783.37
2019-03-17T15:12:00.441Z,93794.39
2019-03-17T15:15:11.120Z,93798.81
2019-03-17T15:18:19.066Z,93797.91
2019-03-17T15:21:27.136Z,93804.72
2019-03-17T15:24:35.259Z,93812.63
2019-03-17T15:27:43.479Z,93814.95
2019-03-17T15:31:05.754Z,93816.75
2019-03-17T15:34:00.615Z,93818.28
2019-03-17T15:37:08.169Z,93830.01
2019-03-17T15:40:15.887Z,93835.94
2019-03-17T15:43:23.567Z,93841.86
2019-03-17T15:46:31.272Z,93837.69
2019-03-17T15:49:39.326Z,93848.09
2019-03-17T15:52:47.519Z,93854.27
2019-03-17T15:55:55.280Z,93854.27
2019-03-17T15:59:03.093Z,93863.05
2019-03-17T16:02:10.812Z,93858.77
2019-03-17T16:05:20.509Z,93860.30
2019-03-17T16:08:28.180Z,93862.69
2019-03-17T16:11:36.534Z,93865.77
2019-03-17T16:14:44.280Z,93858.61
2019-03-17T16:17:52.256Z,93872.72
2019-03-17T16:20:59.962Z,93875.39
2019-03-17T16:24:07.821Z,93879.23
2019-03-17T16:27:16.404Z,93881.33
2019-03-17T16:30:24.250Z,93885.73
2019-03-17T16:33:31.504Z,93883.80
2019-03-17T16:36:39.470Z,93891.06
2019-03-17T16:39:47.448Z,93893.34
2019-03-17T16:42:55.271Z,93892.92
2019-03-17T16:46:02.727Z,93901.88
2019-03-17T16:49:10.488Z,93899.56
2019-03-17T16:52:17.792Z,93906.02
2019-03-17T16:55:25.262Z,93904.81
2019-03-17T16:58:33.079Z,93922.56
2019-03-17T17:01:40.343Z,93916.59
2019-03-17T17:04:48.106Z,93918.47
2019-03-17T17:07:55.972Z,93916.87
2019-03-17T17:11:04.562Z,93936.08
2019-03-17T17:14:12.383Z,93970.27
2019-03-17T17:17:20.104Z,93991.59
2019-03-17T17:20:28.212Z,94000.94
2019-03-17T17:23:36.269Z,94015.73
2019-03-17T17:26:43.944Z,94026.12
2019-03-17T17:29:52.934Z,94062.84
2019-03-17T17:33:01.028Z,94077.97
2019-03-17T17:36:08.555Z,94128.30
2019-03-17T17:39:16.199Z,94157.43
2019-03-17T17:42:25.726Z,94160.20
2019-03-17T17:45:33.302Z,94180.95
2019-03-17T17:48:41.300Z,94200.06
2019-03-17T17:51:48.731Z,94206.40
2019-03-17T17:54:56.783Z,94203.59
2019-03-17T17:58:04.530Z,94230.22
2019-03-17T18:01:12.778Z,94237.66
2019-03-17T18:04:20.363Z,94236.91
2019-03-17T18:07:27.834Z,94250.14
2019-03-17T18:10:35.474Z,94257.50
2019-03-17T18:13:42.628Z,94268.70
2019-03-17T18:16:50.739Z,94289.62
2019-03-17T18:19:58.617Z,94296.34
2019-03-17T18:23:17.340Z,94314.14
2019-03-17T18:26:16.312Z,94330.64
2019-03-17T18:29:24.322Z,94342.00
2019-03-17T18:32:32.006Z,94345.37
2019-03-17T18:35:40.113Z,94373.89
2019-03-17T18:38:48.428Z,94389.96
2019-03-17T18:41:56.033Z,94398.69
2019-03-17T18:45:04.545Z,94419.77
2019-03-17T18:48:12.399Z,94433.55
2019-03-17T18:51:20.933Z,94446.31
2019-03-17T18:54:28.373Z,94460.77
2019-03-17T18:57:37.499Z,94462.31
2019-03-17T19:00:45.394Z,94468.20
2019-03-17T19:03:53.227Z,94481.42
2019-03-17T19:07:01.150Z,94491.27
2019-03-17T19:10:09.214Z,94491.56
2019-03-17T19:13:16.733Z,94491.75
2019-03-17T19:16:24.730Z,94500.91
2019-03-17T19:19:32.586Z,94513.98
2019-03-17T19:22:40.129Z,94516.42
2019-03-17T19:25:47.721Z,94521.44
2019-03-17T19:28:55.034Z,94540.14
2019-03-17T19:32:02.299Z,94539.77
2019-03-17T19:35:10.126Z,94547.06
2019-03-17T19:38:17.734Z,94547.31
2019-03-17T19:41:25.512Z,94563.47
2019-03-17T19:44:33.119Z,94567.57
2019-03-17T19:47:40.793Z,94566.26
2019-03-17T19:50:48.991Z,94580.87
2019-03-17T19:53:56.923Z,94578.03
2019-03-17T19:57:05.405Z,94593.02
2019-03-17T20:00:14.568Z,94597.44
2019-03-17T20:03:22.391Z,94600.70
2019-03-17T20:06:30.828Z,94614.33
2019-03-17T20:09:38.769Z,94614.33
2019-03-17T20:12:46.763Z,94619.75
2019-03-17T20:15:53.988Z,94616.01
2019-03-17T20:19:02.731Z,94620.77
2019-03-17T20:22:10.460Z,94621.71
2019-03-17T20:25:18.597Z,94631.77
2019-03-17T20:28:26.059Z,94626.41
2019-03-17T20:31:33.913Z,94629.41
2019-03-17T20:34:42.578Z,94629.47
2019-03-17T20:37:50.367Z,94638.27
2019-03-17T20:40:58.007Z,94638.88
2019-03-17T20:44:05.716Z,94639.29
2019-03-17T20:47:13.376Z,94643.98
2019-03-17T20:50:21.195Z,94635.94
2019-03-17T20:53:28.704Z,94647.05
2019-03-17T20:56:36.377Z,94644.30
2019-03-17T20:59:44.433Z,94639.62
2019-03-17T21:02:52.736Z,94650.83
2019-03-17T21:06:00.925Z,94667.75
2019-03-17T21:09:08.416Z,94667.63
2019-03-17T21:12:16.671Z,94669.92
2019-03-17T21:15:24.971Z,94667.91
2019-03-17T21:18:32.440Z,94672.22
2019-03-17T21:21:40.349Z,94685.09
2019-03-17T21:24:48.378Z,94687.61
2019-03-17T21:27:55.943Z,94700.57
2019-03-17T21:31:04.176Z,94700.66
2019-03-17T21:34:12.681Z,94694.77
2019-03-17T21:37:20.487Z,94699.80
2019-03-17T21:40:28.266Z,94701.80
2019-03-17T21:43:36.271Z,94699.98
2019-03-17T21:46:43.715Z,94705.09
2019-03-17T21:49:51.224Z,94703.19
2019-03-17T21:52:59.236Z,94706.48
2019-03-17T21:56:06.579Z,94721.14
2019-03-17T21:59:14.482Z,94718.02
2019-03-17T22:02:21.900Z,94722.31
2019-03-17T22:05:30.263Z,94726.92
2019-03-17T22:08:38.023Z,94727.80
2019-03-17T22:11:46.018Z,94739.88
2019-03-17T22:14:53.214Z,94743.25
2019-03-17T22:18:00.742Z,94744.09
2019-03-17T22:21:08.101Z,94743.82
2019-03-17T22:24:15.507Z,94753.60
2019-03-17T22:27:23.187Z,94754.52
2019-03-17T22:30:31.020Z,94758.57
2019-03-17T22:33:38.948Z,94765.91
2019-03-17T22:36:46.726Z,94774.33
2019-03-17T22:39:54.403Z,94770.63
2019-03-17T22:43:02.026Z,94776.66
2019-03-17T22:46:09.563Z,94781.05
2019-03-17T22:49:16.983Z,94773.28
2019-03-17T22:52:24.208Z,94781.19
2019-03-17T22:55:31.417Z,94788.25
2019-03-17T22:58:39.274Z,94797.83
2019-03-17T23:01:47.079Z,94797.42
2019-03-17T23:04:54.901Z,94804.80
2019-03-17T23:08:02.649Z,94797.86
2019-03-17T23:11:10.311Z,94798.70
2019-03-17T23:14:17.806Z,94805.02
2019-03-17T23:17:25.287Z,94805.73
2019-03-17T23:20:32.465Z,94819.61
2019-03-17T23:23:40.346Z,94822.90
2019-03-17T23:26:47.482Z,94827.57
2019-03-17T23:29:54.932Z,94836.55
2019-03-17T23:33:02.441Z,94831.39
2019-03-17T23:36:10.048Z,94838.39
2019-03-17T23:39:37.744Z,94846.57
2019-03-17T23:42:45.713Z,94876.94
2019-03-17T23:45:53.203Z,94839.25
2019-03-17T23:49:01.482Z,94814.26
2019-03-17T23:52:09.796Z,94807.89
2019-03-17T23:55:17.880Z,94812.86
2019-03-17T23:58:25.690Z,94808.95
